SBI11 UWGG-UUDD
Flight info
| Callsign | SBI11 |
|---|---|
| Flight time | 0h 40m |
| Altitude | 34000 |
| Route | LARN2U LARNO P985 OSPOM T787 URAGO URAG3M |
| Aircraft | A320/M-SDE3FGHIRWY/LB1 |
Departure
| Time | 2026-05-03 22:34 |
|---|---|
| Airport | Nizhny Novgorod / Strigino International Airport (UWGG) |
Arrival
| Time | 2026-05-03 23:14 |
|---|---|
| Airport | Domodedovo International Airport (UUDD) |
| Time | Latitude | Longitude | Altitude | Speed | Heading |
|---|---|---|---|---|---|
| 2026-05-03 22:18 | 56.21693 | 43.78754 | 255 ft | 0 kts | 281° |
| 2026-05-03 22:27 | 56.21693 | 43.78750 | 255 ft | 1 kts | 281° |
| 2026-05-03 22:27 | 56.21727 | 43.78707 | 254 ft | 11 kts | 12° |
| 2026-05-03 22:28 | 56.21830 | 43.78700 | 252 ft | 16 kts | 356° |
| 2026-05-03 22:28 | 56.21944 | 43.78699 | 252 ft | 16 kts | 12° |
| 2026-05-03 22:28 | 56.22053 | 43.78747 | 253 ft | 15 kts | 8° |
| 2026-05-03 22:28 | 56.22158 | 43.78713 | 251 ft | 15 kts | 13° |
| 2026-05-03 22:29 | 56.22269 | 43.78748 | 251 ft | 16 kts | 10° |
| 2026-05-03 22:29 | 56.22392 | 43.78792 | 250 ft | 19 kts | 13° |
| 2026-05-03 22:29 | 56.22527 | 43.78869 | 251 ft | 21 kts | 11° |
| 2026-05-03 22:29 | 56.22682 | 43.78925 | 249 ft | 24 kts | 12° |
| 2026-05-03 22:30 | 56.22845 | 43.78984 | 256 ft | 22 kts | 12° |
| 2026-05-03 22:30 | 56.23008 | 43.79045 | 256 ft | 24 kts | 13° |
| 2026-05-03 22:30 | 56.23192 | 43.79111 | 250 ft | 27 kts | 12° |
| 2026-05-03 22:30 | 56.23379 | 43.79179 | 251 ft | 25 kts | 11° |
| 2026-05-03 22:31 | 56.23541 | 43.79227 | 250 ft | 24 kts | 4° |
| 2026-05-03 22:31 | 56.23710 | 43.79242 | 251 ft | 23 kts | 2° |
| 2026-05-03 22:31 | 56.23869 | 43.79251 | 252 ft | 21 kts | 2° |
| 2026-05-03 22:31 | 56.23995 | 43.79263 | 256 ft | 14 kts | 357° |
| 2026-05-03 22:32 | 56.24073 | 43.79202 | 251 ft | 13 kts | 311° |
| 2026-05-03 22:32 | 56.24112 | 43.79081 | 248 ft | 8 kts | 292° |
| 2026-05-03 22:32 | 56.24102 | 43.78997 | 248 ft | 5 kts | 228° |
| 2026-05-03 22:32 | 56.24066 | 43.78973 | 248 ft | 5 kts | 193° |
| 2026-05-03 22:33 | 56.24052 | 43.78967 | 248 ft | 0 kts | 192° |
| 2026-05-03 22:33 | 56.24038 | 43.78961 | 248 ft | 10 kts | 192° |
| 2026-05-03 22:33 | 56.23716 | 43.78846 | 248 ft | 83 kts | 192° |
| 2026-05-03 22:33 | 56.22933 | 43.78561 | 251 ft | 142 kts | 192° |
| 2026-05-03 22:34 | 56.21807 | 43.78144 | 426 ft | 173 kts | 192° |
| 2026-05-03 22:34 | 56.20675 | 43.77714 | 1159 ft | 163 kts | 193° |
| 2026-05-03 22:34 | 56.19584 | 43.77155 | 1847 ft | 160 kts | 202° |
| 2026-05-03 22:34 | 56.18500 | 43.76315 | 2366 ft | 170 kts | 205° |
| 2026-05-03 22:35 | 56.17355 | 43.75363 | 2711 ft | 187 kts | 206° |
| 2026-05-03 22:35 | 56.16102 | 43.74291 | 3047 ft | 208 kts | 207° |
| 2026-05-03 22:35 | 56.14721 | 43.73086 | 3400 ft | 230 kts | 207° |
| 2026-05-03 22:35 | 56.13208 | 43.71751 | 3868 ft | 248 kts | 207° |
| 2026-05-03 22:36 | 56.11621 | 43.70347 | 4533 ft | 257 kts | 208° |
| 2026-05-03 22:36 | 56.10121 | 43.68542 | 5356 ft | 258 kts | 223° |
| 2026-05-03 22:36 | 56.08834 | 43.66279 | 6171 ft | 261 kts | 227° |
| 2026-05-03 22:36 | 56.07565 | 43.63925 | 6960 ft | 264 kts | 228° |
| 2026-05-03 22:37 | 56.06224 | 43.61482 | 7767 ft | 269 kts | 227° |
| 2026-05-03 22:37 | 56.04878 | 43.59087 | 8540 ft | 273 kts | 227° |
| 2026-05-03 22:37 | 56.03497 | 43.56672 | 9295 ft | 278 kts | 227° |
| 2026-05-03 22:37 | 56.02077 | 43.54214 | 10040 ft | 283 kts | 227° |
| 2026-05-03 22:38 | 56.00626 | 43.51719 | 10708 ft | 291 kts | 227° |
| 2026-05-03 22:38 | 55.99092 | 43.49089 | 11101 ft | 309 kts | 226° |
| 2026-05-03 22:38 | 55.97482 | 43.46336 | 11439 ft | 327 kts | 226° |
| 2026-05-03 22:38 | 55.95756 | 43.43393 | 11759 ft | 345 kts | 226° |
| 2026-05-03 22:39 | 55.93950 | 43.40324 | 12135 ft | 360 kts | 226° |
| 2026-05-03 22:39 | 55.92099 | 43.37190 | 12787 ft | 365 kts | 226° |
| 2026-05-03 22:39 | 55.90211 | 43.34001 | 13493 ft | 368 kts | 225° |
| 2026-05-03 22:39 | 55.88295 | 43.30770 | 14153 ft | 372 kts | 225° |
| 2026-05-03 22:40 | 55.86372 | 43.27541 | 14792 ft | 376 kts | 225° |
| 2026-05-03 22:40 | 55.84434 | 43.24287 | 15419 ft | 380 kts | 225° |
| 2026-05-03 22:40 | 55.82444 | 43.20941 | 16041 ft | 384 kts | 225° |
| 2026-05-03 22:40 | 55.80602 | 43.17418 | 16624 ft | 385 kts | 236° |
| 2026-05-03 22:41 | 55.79229 | 43.13297 | 17213 ft | 384 kts | 249° |
| 2026-05-03 22:41 | 55.78338 | 43.08672 | 17820 ft | 384 kts | 257° |
| 2026-05-03 22:41 | 55.77644 | 43.04022 | 18389 ft | 387 kts | 259° |
| 2026-05-03 22:41 | 55.76952 | 42.99220 | 18953 ft | 390 kts | 259° |
| 2026-05-03 22:42 | 55.76251 | 42.94419 | 19518 ft | 393 kts | 259° |
| 2026-05-03 22:42 | 55.75553 | 42.89710 | 20052 ft | 396 kts | 259° |
| 2026-05-03 22:42 | 55.74831 | 42.84902 | 20566 ft | 399 kts | 259° |
| 2026-05-03 22:42 | 55.74085 | 42.79979 | 21076 ft | 403 kts | 259° |
| 2026-05-03 22:43 | 55.73338 | 42.75086 | 21570 ft | 406 kts | 259° |
| 2026-05-03 22:43 | 55.72568 | 42.70067 | 22064 ft | 409 kts | 259° |
| 2026-05-03 22:43 | 55.71801 | 42.65080 | 22542 ft | 412 kts | 259° |
| 2026-05-03 22:43 | 55.71032 | 42.60104 | 22991 ft | 415 kts | 259° |
| 2026-05-03 22:44 | 55.70253 | 42.55081 | 23435 ft | 418 kts | 259° |
| 2026-05-03 22:44 | 55.69463 | 42.50003 | 23877 ft | 421 kts | 259° |
| 2026-05-03 22:44 | 55.68665 | 42.44890 | 24299 ft | 424 kts | 259° |
| 2026-05-03 22:44 | 55.67849 | 42.39683 | 24707 ft | 427 kts | 259° |
| 2026-05-03 22:45 | 55.67041 | 42.34537 | 25106 ft | 429 kts | 258° |
| 2026-05-03 22:45 | 55.66211 | 42.29257 | 25499 ft | 432 kts | 258° |
| 2026-05-03 22:45 | 55.65371 | 42.23933 | 25867 ft | 435 kts | 258° |
| 2026-05-03 22:45 | 55.64543 | 42.18711 | 26225 ft | 437 kts | 258° |
| 2026-05-03 22:46 | 55.63702 | 42.13416 | 26577 ft | 440 kts | 258° |
| 2026-05-03 22:46 | 55.62832 | 42.07971 | 26924 ft | 442 kts | 258° |
| 2026-05-03 22:46 | 55.61980 | 42.02659 | 27247 ft | 445 kts | 258° |
| 2026-05-03 22:46 | 55.61105 | 41.97222 | 27561 ft | 447 kts | 258° |
| 2026-05-03 22:47 | 55.60210 | 41.91670 | 27882 ft | 449 kts | 258° |
| 2026-05-03 22:47 | 55.59439 | 41.86207 | 28177 ft | 449 kts | 262° |
| 2026-05-03 22:47 | 55.58901 | 41.80579 | 28463 ft | 449 kts | 267° |
| 2026-05-03 22:47 | 55.58631 | 41.74954 | 28741 ft | 448 kts | 272° |
| 2026-05-03 22:48 | 55.58535 | 41.69380 | 29076 ft | 447 kts | 273° |
| 2026-05-03 22:48 | 55.58469 | 41.63778 | 29454 ft | 446 kts | 273° |
| 2026-05-03 22:48 | 55.58404 | 41.58161 | 29829 ft | 445 kts | 273° |
| 2026-05-03 22:48 | 55.58334 | 41.52546 | 30203 ft | 444 kts | 273° |
| 2026-05-03 22:49 | 55.58259 | 41.47012 | 30550 ft | 443 kts | 273° |
| 2026-05-03 22:49 | 55.58179 | 41.41455 | 30887 ft | 443 kts | 273° |
| 2026-05-03 22:49 | 55.58094 | 41.35845 | 31220 ft | 443 kts | 273° |
| 2026-05-03 22:50 | 55.57914 | 41.24606 | 30920 ft | 434 kts | 273° |
| 2026-05-03 22:50 | 55.57907 | 41.19281 | 30670 ft | 431 kts | 275° |
| 2026-05-03 22:50 | 55.57968 | 41.13918 | 30418 ft | 431 kts | 275° |
| 2026-05-03 22:50 | 55.58037 | 41.08524 | 30163 ft | 431 kts | 275° |
| 2026-05-03 22:51 | 55.58099 | 41.03019 | 29902 ft | 432 kts | 275° |
| 2026-05-03 22:51 | 55.58153 | 40.97557 | 29645 ft | 432 kts | 275° |
| 2026-05-03 22:51 | 55.58200 | 40.92057 | 29387 ft | 432 kts | 275° |
| 2026-05-03 22:51 | 55.58241 | 40.86568 | 29128 ft | 433 kts | 274° |
| 2026-05-03 22:52 | 55.58278 | 40.81073 | 28869 ft | 433 kts | 274° |
| 2026-05-03 22:52 | 55.58310 | 40.75671 | 28616 ft | 433 kts | 274° |
| 2026-05-03 22:52 | 55.58338 | 40.70143 | 28356 ft | 434 kts | 274° |
| 2026-05-03 22:52 | 55.58365 | 40.64632 | 28097 ft | 434 kts | 274° |
| 2026-05-03 22:53 | 55.58389 | 40.59078 | 27837 ft | 435 kts | 274° |
| 2026-05-03 22:53 | 55.58410 | 40.53639 | 27583 ft | 435 kts | 274° |
| 2026-05-03 22:53 | 55.58429 | 40.48115 | 27313 ft | 436 kts | 274° |
| 2026-05-03 22:53 | 55.58445 | 40.42589 | 27017 ft | 434 kts | 274° |
| 2026-05-03 22:54 | 55.58458 | 40.37170 | 26680 ft | 432 kts | 274° |
| 2026-05-03 22:54 | 55.58469 | 40.31730 | 26241 ft | 429 kts | 273° |
| 2026-05-03 22:54 | 55.58476 | 40.26363 | 25755 ft | 425 kts | 273° |
| 2026-05-03 22:54 | 55.58482 | 40.21023 | 25263 ft | 421 kts | 273° |
| 2026-05-03 22:55 | 55.58485 | 40.15662 | 24762 ft | 418 kts | 273° |
| 2026-05-03 22:55 | 55.58487 | 40.10385 | 24257 ft | 414 kts | 273° |
| 2026-05-03 22:55 | 55.58486 | 40.05183 | 23753 ft | 411 kts | 273° |
| 2026-05-03 22:55 | 55.58483 | 39.99957 | 23254 ft | 407 kts | 273° |
| 2026-05-03 22:56 | 55.58478 | 39.94758 | 22755 ft | 403 kts | 273° |
| 2026-05-03 22:56 | 55.58471 | 39.89767 | 22269 ft | 400 kts | 273° |
| 2026-05-03 22:56 | 55.58463 | 39.84739 | 21783 ft | 396 kts | 273° |
| 2026-05-03 22:56 | 55.58452 | 39.79701 | 21295 ft | 393 kts | 273° |
| 2026-05-03 22:57 | 55.58439 | 39.74802 | 20814 ft | 390 kts | 273° |
| 2026-05-03 22:57 | 55.58425 | 39.69922 | 20331 ft | 387 kts | 273° |
| 2026-05-03 22:57 | 55.58408 | 39.64948 | 19837 ft | 383 kts | 273° |
| 2026-05-03 22:57 | 55.58390 | 39.60161 | 19357 ft | 380 kts | 273° |
| 2026-05-03 22:58 | 55.58370 | 39.55357 | 18869 ft | 378 kts | 273° |
| 2026-05-03 22:58 | 55.58348 | 39.50579 | 18383 ft | 375 kts | 273° |
| 2026-05-03 22:58 | 55.58324 | 39.45855 | 17900 ft | 372 kts | 273° |
| 2026-05-03 22:58 | 55.58300 | 39.41245 | 17429 ft | 369 kts | 273° |
| 2026-05-03 22:59 | 55.58273 | 39.36583 | 16945 ft | 367 kts | 273° |
| 2026-05-03 22:59 | 55.58244 | 39.31826 | 16454 ft | 364 kts | 272° |
| 2026-05-03 22:59 | 55.58213 | 39.27188 | 15970 ft | 362 kts | 272° |
| 2026-05-03 22:59 | 55.58182 | 39.22591 | 15491 ft | 359 kts | 272° |
| 2026-05-03 23:00 | 55.58148 | 39.17911 | 15003 ft | 357 kts | 272° |
| 2026-05-03 23:00 | 55.58114 | 39.13431 | 14536 ft | 355 kts | 272° |
| 2026-05-03 23:00 | 55.58079 | 39.09000 | 14075 ft | 352 kts | 272° |
| 2026-05-03 23:00 | 55.58043 | 39.04553 | 13633 ft | 349 kts | 271° |
| 2026-05-03 23:01 | 55.58006 | 39.00205 | 13207 ft | 345 kts | 271° |
| 2026-05-03 23:01 | 55.57968 | 38.95914 | 12785 ft | 342 kts | 271° |
| 2026-05-03 23:01 | 55.57928 | 38.91569 | 12351 ft | 339 kts | 271° |
| 2026-05-03 23:01 | 55.57887 | 38.87239 | 11912 ft | 337 kts | 270° |
| 2026-05-03 23:02 | 55.57843 | 38.82997 | 11467 ft | 334 kts | 270° |
| 2026-05-03 23:02 | 55.57796 | 38.78729 | 11006 ft | 332 kts | 270° |
| 2026-05-03 23:02 | 55.57750 | 38.74516 | 10609 ft | 328 kts | 270° |
| 2026-05-03 23:02 | 55.57703 | 38.70511 | 10511 ft | 313 kts | 270° |
| 2026-05-03 23:03 | 55.57657 | 38.66622 | 10416 ft | 299 kts | 270° |
| 2026-05-03 23:03 | 55.57611 | 38.62884 | 10332 ft | 285 kts | 271° |
| 2026-05-03 23:03 | 55.57567 | 38.59314 | 10262 ft | 271 kts | 271° |
| 2026-05-03 23:03 | 55.57525 | 38.55981 | 10056 ft | 266 kts | 271° |
| 2026-05-03 23:04 | 55.57482 | 38.52572 | 9720 ft | 265 kts | 271° |
| 2026-05-03 23:04 | 55.57439 | 38.49201 | 9400 ft | 263 kts | 271° |
| 2026-05-03 23:04 | 55.57397 | 38.45920 | 9093 ft | 261 kts | 271° |
| 2026-05-03 23:04 | 55.57353 | 38.42629 | 8787 ft | 260 kts | 271° |
| 2026-05-03 23:05 | 55.57308 | 38.39332 | 8482 ft | 258 kts | 271° |
| 2026-05-03 23:05 | 55.57263 | 38.36089 | 8184 ft | 256 kts | 271° |
| 2026-05-03 23:05 | 55.57217 | 38.32854 | 7887 ft | 255 kts | 270° |
| 2026-05-03 23:05 | 55.57170 | 38.29658 | 7592 ft | 253 kts | 270° |
| 2026-05-03 23:06 | 55.57123 | 38.26453 | 7298 ft | 252 kts | 270° |
| 2026-05-03 23:06 | 55.57075 | 38.23262 | 7006 ft | 250 kts | 270° |
| 2026-05-03 23:06 | 55.57027 | 38.20125 | 6720 ft | 249 kts | 270° |
| 2026-05-03 23:06 | 55.56978 | 38.16959 | 6432 ft | 248 kts | 270° |
| 2026-05-03 23:07 | 55.56930 | 38.13895 | 6154 ft | 246 kts | 270° |
| 2026-05-03 23:07 | 55.56880 | 38.10760 | 5874 ft | 245 kts | 269° |
| 2026-05-03 23:07 | 55.56829 | 38.07639 | 5596 ft | 243 kts | 269° |
| 2026-05-03 23:07 | 55.56778 | 38.04533 | 5321 ft | 242 kts | 269° |
| 2026-05-03 23:08 | 55.56728 | 38.01514 | 5053 ft | 240 kts | 269° |
| 2026-05-03 23:08 | 55.56675 | 37.98413 | 4777 ft | 239 kts | 269° |
| 2026-05-03 23:08 | 55.56622 | 37.95369 | 4506 ft | 238 kts | 269° |
| 2026-05-03 23:08 | 55.56570 | 37.92351 | 4235 ft | 236 kts | 268° |
| 2026-05-03 23:09 | 55.56515 | 37.89336 | 3965 ft | 235 kts | 268° |
| 2026-05-03 23:09 | 55.56459 | 37.86288 | 3711 ft | 232 kts | 268° |
| 2026-05-03 23:09 | 55.56407 | 37.83462 | 3695 ft | 218 kts | 268° |
| 2026-05-03 23:09 | 55.56356 | 37.80751 | 3670 ft | 208 kts | 268° |
| 2026-05-03 23:10 | 55.56309 | 37.78242 | 3633 ft | 197 kts | 268° |
| 2026-05-03 23:10 | 55.56044 | 37.75853 | 3514 ft | 189 kts | 243° |
| 2026-05-03 23:10 | 55.55091 | 37.74168 | 3207 ft | 186 kts | 208° |
| 2026-05-03 23:10 | 55.53777 | 37.73726 | 2950 ft | 181 kts | 175° |
| 2026-05-03 23:11 | 55.52601 | 37.74515 | 2885 ft | 164 kts | 150° |
| 2026-05-03 23:11 | 55.51668 | 37.75649 | 2802 ft | 149 kts | 146° |
| 2026-05-03 23:11 | 55.50829 | 37.76730 | 2645 ft | 141 kts | 147° |
| 2026-05-03 23:11 | 55.49998 | 37.77768 | 2459 ft | 140 kts | 147° |
| 2026-05-03 23:12 | 55.49173 | 37.78768 | 2267 ft | 139 kts | 148° |
| 2026-05-03 23:12 | 55.48339 | 37.79765 | 2073 ft | 139 kts | 148° |
| 2026-05-03 23:12 | 55.47523 | 37.80737 | 1885 ft | 138 kts | 148° |
| 2026-05-03 23:12 | 55.46697 | 37.81723 | 1694 ft | 138 kts | 148° |
| 2026-05-03 23:13 | 55.45867 | 37.82715 | 1503 ft | 137 kts | 148° |
| 2026-05-03 23:13 | 55.45058 | 37.83683 | 1318 ft | 137 kts | 148° |
| 2026-05-03 23:13 | 55.44252 | 37.84650 | 1137 ft | 137 kts | 147° |
| 2026-05-03 23:13 | 55.43438 | 37.85630 | 953 ft | 136 kts | 147° |
| 2026-05-03 23:14 | 55.42638 | 37.86604 | 774 ft | 136 kts | 147° |
| 2026-05-03 23:14 | 55.41834 | 37.87554 | 610 ft | 134 kts | 147° |
| 2026-05-03 23:14 | 55.41149 | 37.88366 | 602 ft | 88 kts | 146° |
| 2026-05-03 23:14 | 55.40770 | 37.88819 | 602 ft | 45 kts | 146° |
| 2026-05-03 23:15 | 55.40542 | 37.89102 | 602 ft | 33 kts | 138° |
| 2026-05-03 23:15 | 55.40416 | 37.89384 | 602 ft | 22 kts | 116° |
| 2026-05-03 23:15 | 55.40401 | 37.89566 | 602 ft | 12 kts | 41° |
| 2026-05-03 23:15 | 55.40474 | 37.89541 | 602 ft | 9 kts | 327° |
| 2026-05-03 23:16 | 55.40533 | 37.89469 | 602 ft | 10 kts | 324° |
| 2026-05-03 23:16 | 55.40602 | 37.89384 | 601 ft | 13 kts | 326° |
| 2026-05-03 23:16 | 55.40694 | 37.89278 | 602 ft | 13 kts | 333° |
| 2026-05-03 23:16 | 55.40773 | 37.89347 | 602 ft | 14 kts | 55° |
| 2026-05-03 23:17 | 55.40831 | 37.89495 | 602 ft | 12 kts | 56° |
| 2026-05-03 23:17 | 55.40890 | 37.89609 | 602 ft | 11 kts | 54° |
| 2026-05-03 23:17 | 55.40937 | 37.89733 | 602 ft | 11 kts | 56° |
| 2026-05-03 23:17 | 55.40987 | 37.89859 | 602 ft | 12 kts | 45° |
| 2026-05-03 23:18 | 55.41065 | 37.89872 | 602 ft | 12 kts | 30° |
| 2026-05-03 23:18 | 55.41123 | 37.89959 | 601 ft | 7 kts | 38° |
| 2026-05-03 23:18 | 55.41151 | 37.89983 | 602 ft | 2 kts | 14° |